OOCL Atlanta — VRAR6 — position and weather

sailwx.info

Track history (hours):
 
Tides and Currents Weather Stations Pressure Air Temp Water Temp Dewpoint Dewpoint Depression Visibility Wind Speed Wind Dir Waves Ship Positions

OOCL Atlanta

Last reported at 2016-Jul-23 14:33 UTC. Time now 2016-Jul-23 15:04 UTC.
Position N 36°07' W 007°57'.

Length 323 m; beam 42.8 m; draft 14.5 m.

Type: Cargo ship. MMSI: 477920300.

Date/timePositionNaut miles runAvg speedWind from/ knotsBaromVisibWave heightAir tempDewpointWater temp
2016-Jul-23 14:33N 36°07' W 007°57'1313.3
2016-Jul-23 13:33N 36°09' W 008°13'1413.6
2016-Jul-23 12:33N 36°11' W 008°30'1413.6
2016-Jul-23 11:32N 36°13' W 008°47'1313.4
2016-Jul-23 10:33N 36°16' W 009°03'1313.2
2016-Jul-23 09:33N 36°20' W 009°19'1715.7
2016-Jul-23 08:28N 36°25' W 009°39'7612.9
2016-Jul-23 02:33N 36°48' W 011°09'5512.5
2016-Jul-22 22:06N 37°04' W 012°16'13012.8
2016-Jul-22 12:00N 37°36' W 014°54'31913.3 030 / 191024.427.0 1.023.016.520.9
2016-Jul-21 12:00N 38°48' W 021°30'8415.1 320 / 101024.427.0 1.022.516.823.2
2016-Jul-21 06:29N 39°07' W 023°15'3013.4
2016-Jul-21 04:17N 39°12' W 023°52'2613.1
2016-Jul-21 02:19N 39°16' W 024°25'3813.2
2016-Jul-20 23:26N 39°22' W 025°13'1213.3
2016-Jul-20 22:33N 39°24' W 025°28'1413.1
2016-Jul-20 21:31N 39°26' W 025°46'1716.5
2016-Jul-20 20:28N 39°28' W 026°08'1312.9
2016-Jul-20 19:26N 39°30' W 026°25'1113.0
2016-Jul-20 18:33N 39°31' W 026°40'1312.8
2016-Jul-20 17:34N 39°33' W 026°56'1413.3
2016-Jul-20 16:32N 39°35' W 027°14'1313.4
2016-Jul-20 15:33N 39°37' W 027°30'1313.3
2016-Jul-20 14:33N 39°38' W 027°48'1313.2
2016-Jul-20 13:33N 39°40' W 028°05'1413.8
2016-Jul-20 12:33N 39°41' W 028°22'610.3
2016-Jul-20 12:00N 39°42' W 028°30'817.5 280 / 121023.410.8 0.522.017.221.7
2016-Jul-20 11:34N 39°43' W 028°40'1413.6
2016-Jul-20 10:33N 39°45' W 028°57'1514.8
2016-Jul-20 09:34N 39°46' W 029°17'1615.8
2016-Jul-20 08:33N 39°48' W 029°37'1413.8
2016-Jul-20 07:33N 39°49' W 029°55'1413.8
2016-Jul-20 06:33N 39°50' W 030°13'1414.0
2016-Jul-20 05:31N 39°52' W 030°31'1513.8
2016-Jul-20 04:27N 39°53' W 030°51'43914.0
2016-Jul-18 21:00N 40°06' W 040°24'   280 / 161027.010.8 0.524.017.620.9
2016-Jul-16 00:00N 38°00' W 060°42'8914.8 220 / 51020.910.8 24.520.925.6
2016-Jul-15 18:00N 37°36' W 062°30'24613.6 250 / 151009.010.8 1.025.020.725.0
2016-Jul-15 00:00N 36°24' W 067°24'3014.8 070 / 141019.427.0 0.525.020.725.5
2016-Jul-14 22:00N 36°18' W 068°00'   210 / 81017.910.8 1.025.521.225.0
Track history (hours):
 
Tides and Currents Weather Stations Pressure Air Temp Water Temp Dewpoint Dewpoint Depression Visibility Wind Speed Wind Dir Waves Ship Positions

OOCL Atlanta

Last reported at 2016-Jul-23 14:33 UTC. Time now 2016-Jul-23 15:04 UTC.
Position N 36°07' W 007°57'.

Length 323 m; beam 42.8 m; draft 14.5 m.

Type: Cargo ship. MMSI: 477920300.

Date/timePositionNaut miles runAvg speedWind from/ knotsBaromVisibWave heightAir tempDewpointWater temp
2016-Jul-23 14:33N 36°07' W 007°57'1313.3
2016-Jul-23 13:33N 36°09' W 008°13'1413.6
2016-Jul-23 12:33N 36°11' W 008°30'1413.6
2016-Jul-23 11:32N 36°13' W 008°47'1313.4
2016-Jul-23 10:33N 36°16' W 009°03'1313.2
2016-Jul-23 09:33N 36°20' W 009°19'1715.7
2016-Jul-23 08:28N 36°25' W 009°39'7612.9
2016-Jul-23 02:33N 36°48' W 011°09'5512.5
2016-Jul-22 22:06N 37°04' W 012°16'13012.8
2016-Jul-22 12:00N 37°36' W 014°54'31913.3 030 / 191024.427.0 1.023.016.520.9
2016-Jul-21 12:00N 38°48' W 021°30'8415.1 320 / 101024.427.0 1.022.516.823.2
2016-Jul-21 06:29N 39°07' W 023°15'3013.4
2016-Jul-21 04:17N 39°12' W 023°52'2613.1
2016-Jul-21 02:19N 39°16' W 024°25'3813.2
2016-Jul-20 23:26N 39°22' W 025°13'1213.3
2016-Jul-20 22:33N 39°24' W 025°28'1413.1
2016-Jul-20 21:31N 39°26' W 025°46'1716.5
2016-Jul-20 20:28N 39°28' W 026°08'1312.9
2016-Jul-20 19:26N 39°30' W 026°25'1113.0
2016-Jul-20 18:33N 39°31' W 026°40'1312.8
2016-Jul-20 17:34N 39°33' W 026°56'1413.3
2016-Jul-20 16:32N 39°35' W 027°14'1313.4
2016-Jul-20 15:33N 39°37' W 027°30'1313.3
2016-Jul-20 14:33N 39°38' W 027°48'1313.2
2016-Jul-20 13:33N 39°40' W 028°05'1413.8
2016-Jul-20 12:33N 39°41' W 028°22'610.3
2016-Jul-20 12:00N 39°42' W 028°30'817.5 280 / 121023.410.8 0.522.017.221.7
2016-Jul-20 11:34N 39°43' W 028°40'1413.6
2016-Jul-20 10:33N 39°45' W 028°57'1514.8
2016-Jul-20 09:34N 39°46' W 029°17'1615.8
2016-Jul-20 08:33N 39°48' W 029°37'1413.8
2016-Jul-20 07:33N 39°49' W 029°55'1413.8
2016-Jul-20 06:33N 39°50' W 030°13'1414.0
2016-Jul-20 05:31N 39°52' W 030°31'1513.8
2016-Jul-20 04:27N 39°53' W 030°51'43914.0
2016-Jul-18 21:00N 40°06' W 040°24'   280 / 161027.010.8 0.524.017.620.9
2016-Jul-16 00:00N 38°00' W 060°42'8914.8 220 / 51020.910.8 24.520.925.6
2016-Jul-15 18:00N 37°36' W 062°30'24613.6 250 / 151009.010.8 1.025.020.725.0
2016-Jul-15 00:00N 36°24' W 067°24'3014.8 070 / 141019.427.0 0.525.020.725.5
2016-Jul-14 22:00N 36°18' W 068°00'   210 / 81017.910.8 1.025.521.225.0

Dump ship's entire track history